Bookmark and Share
Track history (hours):
 

Stolt Spray

Last reported at 2014-Apr-09 18:22 UTC. Time now 2014-Apr-20 13:29 UTC.
Position S 38°36' E 140°37'.
Warning: this ship's position is 10 days out of date.

Length 163 m; draft 7.4 m.

Type: Ship (hazmat cat A). MMSI: 319591000.

NotesDate/timePositionNaut miles runAvg speedWind from/ knotsBaromVisibWave heightAir tempDewpointWater temp
2014-Apr-09 18:22S 38°36' E 140°37'1113.6
2014-Apr-09 17:32S 38°38' E 140°51'1313.5
2014-Apr-09 16:33S 38°40' E 141°07'1413.3
2014-Apr-09 15:32S 38°43' E 141°25'1413.7
2014-Apr-09 14:33S 38°45' E 141°42'1313.5
2014-Apr-09 13:33S 38°47' E 141°59'1413.4
2014-Apr-09 12:32S 38°49' E 142°16'13111.9
2014-Apr-09 01:34S 38°09' E 144°55'1714.1
2014-Apr-09 00:19S 37°52' E 144°55'3 1.0
2014-Apr-08 21:29S 37°49' E 144°54'0 0.0
2014-Apr-08 20:29S 37°49' E 144°54'0 0.0
2014-Apr-08 19:29S 37°49' E 144°54'0 0.0
2014-Apr-08 18:29S 37°49' E 144°54'0 0.0
2014-Apr-08 17:29S 37°49' E 144°54'0 0.0
2014-Apr-08 16:29S 37°49' E 144°54'0 0.0
2014-Apr-08 15:29S 37°49' E 144°54'0 0.0
2014-Apr-08 14:29S 37°49' E 144°54'0 0.0
2014-Apr-08 13:23S 37°49' E 144°54'0 0.0
2014-Apr-08 12:29S 37°49' E 144°54'0 0.0
2014-Apr-08 11:29S 37°49' E 144°54'0 0.0
2014-Apr-08 10:29S 37°49' E 144°54'0 0.0
2014-Apr-08 09:29S 37°49' E 144°54'0 0.0
2014-Apr-08 08:29S 37°49' E 144°54'0 0.0
2014-Apr-08 07:29S 37°49' E 144°54'0 0.0
2014-Apr-08 06:29S 37°49' E 144°54'0 0.0
2014-Apr-08 05:29S 37°49' E 144°54'0 0.0
2014-Apr-08 04:29S 37°49' E 144°54'0 0.0
2014-Apr-08 03:29S 37°49' E 144°54'0 0.0
2014-Apr-08 02:29S 37°49' E 144°54'0 0.0
2014-Apr-08 01:29S 37°49' E 144°54'0 0.0
2014-Apr-08 00:29S 37°49' E 144°54'0 0.0
2014-Apr-07 22:29S 37°49' E 144°54'0 0.0
2014-Apr-07 21:23S 37°49' E 144°54'0 0.0
2014-Apr-07 20:29S 37°49' E 144°54'0 0.0
2014-Apr-07 19:29S 37°49' E 144°54'0 0.0
2014-Apr-07 17:29S 37°49' E 144°54'0 0.0
2014-Apr-07 16:29S 37°49' E 144°54'0 0.0
2014-Apr-07 15:29S 37°49' E 144°54'0 0.0
2014-Apr-07 14:29S 37°49' E 144°54'0 0.3
2014-Apr-07 13:33S 37°49' E 144°54'8 8.2
2014-Apr-07 12:33S 37°57' E 144°55'1514.5
2014-Apr-07 11:33S 38°12' E 144°55'14 9.8
2014-Apr-07 10:07S 38°17' E 144°39'7811.2
2014-Apr-07 03:10S 39°05' E 145°58'913.4
2014-Apr-07 02:31S 39°09' E 146°08'1413.0
2014-Apr-07 01:27S 39°11' E 146°25'1313.8
2014-Apr-07 00:32S 39°06' E 146°41'1913.0
2014-Apr-06 23:04S 39°00' E 147°04'  
2014-Apr-03 02:23S 34°01' E 151°16'6111.7
2014-Apr-02 21:10S 33°12' E 151°59'813.2
2014-Apr-02 20:33S 33°06' E 152°06'1413.6
2014-Apr-02 19:33S 32°57' E 152°18'1414.4
2014-Apr-02 18:33S 32°48' E 152°31'1514.9
2014-Apr-02 17:33S 32°38' E 152°45'29114.6
2014-Apr-01 21:33S 27°53' E 153°52'3415.9
2014-Apr-01 19:24S 27°18' E 153°50'1315.1
2014-Apr-01 18:33S 27°06' E 153°46'1513.0
2014-Apr-01 17:23S 26°55' E 153°35'1112.9
2014-Apr-01 16:33S 26°50' E 153°24'1313.0
2014-Apr-01 15:33S 26°44' E 153°11'1111.1
2014-Apr-01 14:33S 26°55' E 153°11'1414.0
2014-Apr-01 13:33S 27°07' E 153°20'1211.8
2014-Apr-01 12:33S 27°17' E 153°14'1010.2
2014-Apr-01 11:33S 27°26' E 153°08'0 0.0
2014-Mar-31 22:24S 27°25' E 153°08'4 5.0
2014-Mar-31 21:33S 27°22' E 153°10'1312.5
2014-Mar-31 20:33S 27°13' E 153°20'1313.4
2014-Mar-31 19:34S 27°01' E 153°15'1212.3
2014-Mar-31 18:33S 26°49' E 153°10'7 6.7
2014-Mar-31 17:33S 26°43' E 153°14'8 8.3
2014-Mar-31 16:33S 26°45' E 153°23'1211.5
2014-Mar-31 15:30S 26°48' E 153°36'  

Dump ship's entire track history

sailing weather and tide predictions

Stolt Spray — ZCSQ9 — position and weather